sensor_id;sensor_type;location;lat;lon;timestamp;pressure;altitude;pressure_sealevel;temperature;humidity
73383;BME280;61600;48.126;11.542;2022-10-15T00:01:54;95206.88;;;16.58;71.97
73383;BME280;61600;48.126;11.542;2022-10-15T00:04:20;95215.13;;;16.58;71.62
73383;BME280;61600;48.126;11.542;2022-10-15T00:06:45;95214.78;;;16.59;71.30
73383;BME280;61600;48.126;11.542;2022-10-15T00:09:11;95208.72;;;16.45;71.91
73383;BME280;61600;48.126;11.542;2022-10-15T00:11:37;95206.41;;;16.56;71.63
73383;BME280;61600;48.126;11.542;2022-10-15T00:14:03;95209.53;;;16.45;72.25
73383;BME280;61600;48.126;11.542;2022-10-15T00:16:29;95214.22;;;16.45;71.90
73383;BME280;61600;48.126;11.542;2022-10-15T00:19:05;95206.44;;;16.47;72.10
73383;BME280;61600;48.126;11.542;2022-10-15T00:21:31;95200.56;;;16.57;71.97
73383;BME280;61600;48.126;11.542;2022-10-15T00:24:02;95212.63;;;16.65;71.18
73383;BME280;61600;48.126;11.542;2022-10-15T00:26:28;95204.78;;;16.55;71.96
73383;BME280;61600;48.126;11.542;2022-10-15T00:28:57;95201.06;;;16.59;72.08
73383;BME280;61600;48.126;11.542;2022-10-15T00:31:25;95200.53;;;16.36;72.10
73383;BME280;61600;48.126;11.542;2022-10-15T00:33:53;95197.47;;;16.38;72.76
73383;BME280;61600;48.126;11.542;2022-10-15T00:36:24;95190.31;;;16.16;72.97
73383;BME280;61600;48.126;11.542;2022-10-15T00:38:51;95194.72;;;16.09;73.62
73383;BME280;61600;48.126;11.542;2022-10-15T00:41:28;95184.53;;;16.09;73.52
73383;BME280;61600;48.126;11.542;2022-10-15T00:43:59;95168.84;;;15.89;73.90
73383;BME280;61600;48.126;11.542;2022-10-15T00:46:32;95180.03;;;16.05;73.87
73383;BME280;61600;48.126;11.542;2022-10-15T00:51:37;95169.31;;;15.91;74.46
73383;BME280;61600;48.126;11.542;2022-10-15T00:54:04;95170.69;;;16.06;73.56
73383;BME280;61600;48.126;11.542;2022-10-15T00:56:31;95170.38;;;16.07;73.36
73383;BME280;61600;48.126;11.542;2022-10-15T00:58:59;95163.25;;;16.06;72.80
73383;BME280;61600;48.126;11.542;2022-10-15T01:01:25;95160.41;;;15.94;73.56
73383;BME280;61600;48.126;11.542;2022-10-15T01:03:53;95155.56;;;15.99;73.65
73383;BME280;61600;48.126;11.542;2022-10-15T01:06:19;95150.06;;;15.99;72.89
73383;BME280;61600;48.126;11.542;2022-10-15T01:08:45;95153.41;;;16.05;73.90
73383;BME280;61600;48.126;11.542;2022-10-15T01:11:39;95146.91;;;16.18;73.71
73383;BME280;61600;48.126;11.542;2022-10-15T01:23:30;95139.94;;;15.91;73.89
73383;BME280;61600;48.126;11.542;2022-10-15T01:26:29;95143.66;;;15.87;74.32
73383;BME280;61600;48.126;11.542;2022-10-15T01:32:27;95129.91;;;15.95;74.09
73383;BME280;61600;48.126;11.542;2022-10-15T01:35:18;95136.63;;;15.77;74.48
73383;BME280;61600;48.126;11.542;2022-10-15T01:38:02;95131.63;;;15.79;74.82
73383;BME280;61600;48.126;11.542;2022-10-15T01:40:36;95130.25;;;15.94;74.43
73383;BME280;61600;48.126;11.542;2022-10-15T01:43:10;95120.59;;;15.88;74.32
73383;BME280;61600;48.126;11.542;2022-10-15T01:45:39;95126.56;;;15.90;74.58
73383;BME280;61600;48.126;11.542;2022-10-15T01:48:10;95114.94;;;15.93;74.42
73383;BME280;61600;48.126;11.542;2022-10-15T01:50:40;95112.03;;;15.60;74.96
73383;BME280;61600;48.126;11.542;2022-10-15T01:53:07;95116.44;;;15.82;74.50
73383;BME280;61600;48.126;11.542;2022-10-15T01:55:35;95115.63;;;15.81;74.37
73383;BME280;61600;48.126;11.542;2022-10-15T01:58:02;95116.06;;;15.63;75.28
73383;BME280;61600;48.126;11.542;2022-10-15T02:00:34;95106.38;;;15.65;75.38
73383;BME280;61600;48.126;11.542;2022-10-15T02:03:03;95109.91;;;15.66;75.11
73383;BME280;61600;48.126;11.542;2022-10-15T02:05:32;95097.63;;;15.72;74.83
73383;BME280;61600;48.126;11.542;2022-10-15T02:11:11;95099.78;;;15.87;74.54
73383;BME280;61600;48.126;11.542;2022-10-15T02:13:59;95102.88;;;15.85;74.84
73383;BME280;61600;48.126;11.542;2022-10-15T02:17:24;95098.94;;;15.95;74.55
73383;BME280;61600;48.126;11.542;2022-10-15T02:21:58;95093.00;;;15.93;74.62
73383;BME280;61600;48.126;11.542;2022-10-15T02:24:36;95087.22;;;15.86;74.68
73383;BME280;61600;48.126;11.542;2022-10-15T02:27:06;95099.28;;;15.93;74.23
73383;BME280;61600;48.126;11.542;2022-10-15T02:29:34;95096.69;;;15.97;74.17
73383;BME280;61600;48.126;11.542;2022-10-15T02:32:05;95088.53;;;15.80;74.88
73383;BME280;61600;48.126;11.542;2022-10-15T02:34:32;95084.44;;;15.65;75.23
73383;BME280;61600;48.126;11.542;2022-10-15T02:37:03;95088.06;;;15.78;75.12
73383;BME280;61600;48.126;11.542;2022-10-15T02:39:29;95086.09;;;15.58;75.95
73383;BME280;61600;48.126;11.542;2022-10-15T02:41:55;95082.59;;;15.78;74.77
73383;BME280;61600;48.126;11.542;2022-10-15T02:44:21;95081.84;;;15.69;75.16
73383;BME280;61600;48.126;11.542;2022-10-15T02:46:52;95084.44;;;15.65;75.07
73383;BME280;61600;48.126;11.542;2022-10-15T02:49:18;95077.88;;;15.58;75.95
73383;BME280;61600;48.126;11.542;2022-10-15T02:51:54;95073.97;;;15.59;75.47
73383;BME280;61600;48.126;11.542;2022-10-15T02:54:20;95074.38;;;15.78;75.10
73383;BME280;61600;48.126;11.542;2022-10-15T02:56:51;95075.28;;;15.61;75.44
73383;BME280;61600;48.126;11.542;2022-10-15T02:59:17;95072.47;;;15.70;75.47
73383;BME280;61600;48.126;11.542;2022-10-15T03:01:49;95065.41;;;15.69;75.28
73383;BME280;61600;48.126;11.542;2022-10-15T03:04:14;95074.88;;;15.71;75.99
73383;BME280;61600;48.126;11.542;2022-10-15T03:06:40;95072.16;;;15.33;77.17
73383;BME280;61600;48.126;11.542;2022-10-15T03:09:06;95079.84;;;15.48;76.71
73383;BME280;61600;48.126;11.542;2022-10-15T03:11:31;95070.06;;;15.30;77.57
73383;BME280;61600;48.126;11.542;2022-10-15T03:13:57;95070.91;;;15.60;76.71
73383;BME280;61600;48.126;11.542;2022-10-15T03:16:23;95070.50;;;15.49;76.61
73383;BME280;61600;48.126;11.542;2022-10-15T03:18:53;95067.50;;;15.63;76.62
73383;BME280;61600;48.126;11.542;2022-10-15T03:21:20;95071.63;;;15.48;77.30
73383;BME280;61600;48.126;11.542;2022-10-15T03:23:45;95073.41;;;15.44;77.28
73383;BME280;61600;48.126;11.542;2022-10-15T03:26:11;95071.75;;;15.52;77.45
73383;BME280;61600;48.126;11.542;2022-10-15T03:28:37;95077.72;;;15.54;77.30
73383;BME280;61600;48.126;11.542;2022-10-15T03:31:02;95082.25;;;15.50;77.45
73383;BME280;61600;48.126;11.542;2022-10-15T03:33:28;95071.63;;;15.40;78.17
73383;BME280;61600;48.126;11.542;2022-10-15T03:35:54;95071.00;;;15.34;78.67
73383;BME280;61600;48.126;11.542;2022-10-15T03:38:21;95069.41;;;15.33;79.73
73383;BME280;61600;48.126;11.542;2022-10-15T03:40:47;95070.50;;;15.41;81.27
73383;BME280;61600;48.126;11.542;2022-10-15T03:43:17;95068.75;;;15.36;80.98
73383;BME280;61600;48.126;11.542;2022-10-15T03:45:48;95068.09;;;15.39;79.77
73383;BME280;61600;48.126;11.542;2022-10-15T03:48:14;95065.22;;;15.27;80.13
73383;BME280;61600;48.126;11.542;2022-10-15T03:50:39;95074.69;;;15.38;78.92
73383;BME280;61600;48.126;11.542;2022-10-15T03:53:05;95069.38;;;15.51;77.83
73383;BME280;61600;48.126;11.542;2022-10-15T03:55:31;95068.50;;;15.59;77.55
73383;BME280;61600;48.126;11.542;2022-10-15T03:57:56;95077.34;;;15.64;77.58
73383;BME280;61600;48.126;11.542;2022-10-15T04:00:22;95072.69;;;15.56;77.77
73383;BME280;61600;48.126;11.542;2022-10-15T04:02:47;95066.97;;;15.70;77.24
73383;BME280;61600;48.126;11.542;2022-10-15T04:05:13;95067.38;;;15.60;77.49
73383;BME280;61600;48.126;11.542;2022-10-15T04:07:39;95067.38;;;15.60;77.91
73383;BME280;61600;48.126;11.542;2022-10-15T04:10:05;95068.13;;;15.69;77.44
73383;BME280;61600;48.126;11.542;2022-10-15T04:12:30;95067.50;;;15.63;77.65
73383;BME280;61600;48.126;11.542;2022-10-15T04:14:56;95066.28;;;15.52;77.87
73383;BME280;61600;48.126;11.542;2022-10-15T04:17:21;95067.25;;;15.47;78.28
73383;BME280;61600;48.126;11.542;2022-10-15T04:19:47;95072.19;;;15.63;77.75
73383;BME280;61600;48.126;11.542;2022-10-15T04:22:13;95071.03;;;15.72;77.60
73383;BME280;61600;48.126;11.542;2022-10-15T04:24:38;95075.78;;;15.55;78.06
73383;BME280;61600;48.126;11.542;2022-10-15T04:27:04;95077.34;;;15.64;78.42
73383;BME280;61600;48.126;11.542;2022-10-15T04:29:29;95067.88;;;15.82;77.73
73383;BME280;61600;48.126;11.542;2022-10-15T04:31:55;95076.81;;;15.71;78.24
73383;BME280;61600;48.126;11.542;2022-10-15T04:34:21;95070.66;;;15.74;77.76
73383;BME280;61600;48.126;11.542;2022-10-15T04:36:47;95065.41;;;15.69;78.07
73383;BME280;61600;48.126;11.542;2022-10-15T04:39:12;95070.50;;;15.79;77.91
73383;BME280;61600;48.126;11.542;2022-10-15T04:41:38;95074.38;;;15.78;78.39
73383;BME280;61600;48.126;11.542;2022-10-15T04:44:04;95066.72;;;15.83;78.04
73383;BME280;61600;48.126;11.542;2022-10-15T04:46:29;95073.53;;;16.07;77.61
73383;BME280;61600;48.126;11.542;2022-10-15T04:48:55;95073.72;;;16.02;77.62
73383;BME280;61600;48.126;11.542;2022-10-15T04:51:22;95074.06;;;16.00;77.97
73383;BME280;61600;48.126;11.542;2022-10-15T04:53:48;95069.53;;;16.04;77.78
73383;BME280;61600;48.126;11.542;2022-10-15T04:56:16;95067.56;;;16.05;77.90
73383;BME280;61600;48.126;11.542;2022-10-15T04:58:52;95081.78;;;16.27;77.01
73383;BME280;61600;48.126;11.542;2022-10-15T05:01:19;95083.13;;;16.21;77.20
73383;BME280;61600;48.126;11.542;2022-10-15T05:03:48;95077.50;;;16.18;77.79
73383;BME280;61600;48.126;11.542;2022-10-15T05:06:16;95080.97;;;16.27;77.44
73383;BME280;61600;48.126;11.542;2022-10-15T05:08:48;95077.81;;;16.16;77.47
73383;BME280;61600;48.126;11.542;2022-10-15T05:11:24;95080.03;;;16.23;77.60
73383;BME280;61600;48.126;11.542;2022-10-15T05:14:01;95093.81;;;16.35;77.33
73383;BME280;61600;48.126;11.542;2022-10-15T05:16:30;95090.47;;;16.29;77.66
73383;BME280;61600;48.126;11.542;2022-10-15T05:19:01;95090.19;;;16.22;77.66
73383;BME280;61600;48.126;11.542;2022-10-15T05:21:27;95092.47;;;16.20;77.80
73383;BME280;61600;48.126;11.542;2022-10-15T05:24:09;95093.59;;;16.40;77.11
73383;BME280;61600;48.126;11.542;2022-10-15T05:26:35;95092.28;;;16.46;77.15
73383;BME280;61600;48.126;11.542;2022-10-15T05:29:05;95092.75;;;16.48;76.98
73383;BME280;61600;48.126;11.542;2022-10-15T05:31:32;95101.06;;;16.39;77.29
73383;BME280;61600;48.126;11.542;2022-10-15T05:33:57;95105.78;;;16.30;77.77
73383;BME280;61600;48.126;11.542;2022-10-15T05:36:26;95100.84;;;16.44;77.21
73383;BME280;61600;48.126;11.542;2022-10-15T05:38:54;95109.63;;;16.59;77.65
73383;BME280;61600;48.126;11.542;2022-10-15T05:41:21;95112.09;;;16.52;77.37
73383;BME280;61600;48.126;11.542;2022-10-15T05:43:48;95114.44;;;16.41;77.90
73383;BME280;61600;48.126;11.542;2022-10-15T05:46:16;95117.69;;;16.64;77.14
73383;BME280;61600;48.126;11.542;2022-10-15T05:48:42;95122.34;;;16.42;77.55
73383;BME280;61600;48.126;11.542;2022-10-15T05:51:10;95119.38;;;16.56;77.05
73383;BME280;61600;48.126;11.542;2022-10-15T05:53:37;95121.59;;;16.54;77.53
73383;BME280;61600;48.126;11.542;2022-10-15T05:56:04;95130.75;;;16.67;76.94
73383;BME280;61600;48.126;11.542;2022-10-15T05:58:32;95136.94;;;16.55;77.43
73383;BME280;61600;48.126;11.542;2022-10-15T06:00:59;95130.84;;;16.49;77.70
73383;BME280;61600;48.126;11.542;2022-10-15T06:03:28;95136.25;;;16.37;78.15
73383;BME280;61600;48.126;11.542;2022-10-15T06:05:54;95138.75;;;16.51;77.95
73383;BME280;61600;48.126;11.542;2022-10-15T06:08:20;95133.50;;;16.67;76.80
73383;BME280;61600;48.126;11.542;2022-10-15T06:10:46;95139.66;;;16.64;77.08
73383;BME280;61600;48.126;11.542;2022-10-15T06:13:12;95153.13;;;16.48;77.13
73383;BME280;61600;48.126;11.542;2022-10-15T06:15:39;95146.66;;;16.53;77.56
73383;BME280;61600;48.126;11.542;2022-10-15T06:18:05;95152.91;;;16.62;76.82
73383;BME280;61600;48.126;11.542;2022-10-15T06:20:31;95151.00;;;16.54;77.33
73383;BME280;61600;48.126;11.542;2022-10-15T06:22:58;95167.66;;;16.78;76.75
73383;BME280;61600;48.126;11.542;2022-10-15T06:25:24;95164.09;;;16.57;77.64
73383;BME280;61600;48.126;11.542;2022-10-15T06:27:50;95165.53;;;16.54;77.80
73383;BME280;61600;48.126;11.542;2022-10-15T06:30:16;95164.53;;;16.38;78.05
73383;BME280;61600;48.126;11.542;2022-10-15T06:32:52;95176.84;;;16.32;78.12
73383;BME280;61600;48.126;11.542;2022-10-15T06:35:19;95178.06;;;16.43;78.31
73383;BME280;61600;48.126;11.542;2022-10-15T06:38:01;95193.34;;;16.53;78.09
73383;BME280;61600;48.126;11.542;2022-10-15T06:40:27;95184.72;;;16.63;77.36
73383;BME280;61600;48.126;11.542;2022-10-15T06:42:53;95181.84;;;16.50;78.07
73383;BME280;61600;48.126;11.542;2022-10-15T06:45:19;95194.19;;;16.44;78.16
73383;BME280;61600;48.126;11.542;2022-10-15T06:47:44;95207.22;;;16.77;77.40
73383;BME280;61600;48.126;11.542;2022-10-15T06:50:10;95213.53;;;16.48;77.95
73383;BME280;61600;48.126;11.542;2022-10-15T06:52:36;95208.19;;;16.52;78.33
73383;BME280;61600;48.126;11.542;2022-10-15T06:55:03;95204.25;;;16.61;77.87
73383;BME280;61600;48.126;11.542;2022-10-15T06:57:29;95208.50;;;16.59;77.86
73383;BME280;61600;48.126;11.542;2022-10-15T06:59:54;95206.50;;;16.88;76.84
73383;BME280;61600;48.126;11.542;2022-10-15T07:02:21;95215.34;;;16.94;76.23
73383;BME280;61600;48.126;11.542;2022-10-15T07:04:51;95225.47;;;17.02;76.64
73383;BME280;61600;48.126;11.542;2022-10-15T07:07:17;95222.63;;;17.11;76.37
73383;BME280;61600;48.126;11.542;2022-10-15T07:09:43;95222.03;;;17.05;75.73
73383;BME280;61600;48.126;11.542;2022-10-15T07:12:11;95228.25;;;16.93;76.36
73383;BME280;61600;48.126;11.542;2022-10-15T07:14:37;95224.09;;;17.08;75.84
73383;BME280;61600;48.126;11.542;2022-10-15T07:17:03;95236.84;;;17.13;76.09
73383;BME280;61600;48.126;11.542;2022-10-15T07:19:28;95240.44;;;17.25;75.19
73383;BME280;61600;48.126;11.542;2022-10-15T07:21:54;95245.97;;;17.05;76.08
73383;BME280;61600;48.126;11.542;2022-10-15T07:24:19;95242.34;;;17.13;75.74
73383;BME280;61600;48.126;11.542;2022-10-15T07:26:48;95245.53;;;17.35;74.75
73383;BME280;61600;48.126;11.542;2022-10-15T07:29:14;95248.97;;;17.12;75.69
73383;BME280;61600;48.126;11.542;2022-10-15T07:31:39;95243.47;;;16.91;76.33
73383;BME280;61600;48.126;11.542;2022-10-15T07:34:10;95251.13;;;17.06;76.02
73383;BME280;61600;48.126;11.542;2022-10-15T07:36:35;95259.47;;;16.89;76.67
73383;BME280;61600;48.126;11.542;2022-10-15T07:39:01;95260.63;;;16.88;76.53
73383;BME280;61600;48.126;11.542;2022-10-15T07:41:27;95268.66;;;17.14;75.70
73383;BME280;61600;48.126;11.542;2022-10-15T07:43:52;95260.50;;;17.26;75.46
73383;BME280;61600;48.126;11.542;2022-10-15T07:46:18;95272.72;;;16.95;76.58
73383;BME280;61600;48.126;11.542;2022-10-15T07:48:47;95271.53;;;17.17;75.75
73383;BME280;61600;48.126;11.542;2022-10-15T07:51:12;95267.94;;;17.05;75.73
73383;BME280;61600;48.126;11.542;2022-10-15T07:53:38;95275.38;;;17.04;75.93
73383;BME280;61600;48.126;11.542;2022-10-15T07:56:06;95274.28;;;16.76;76.84
73383;BME280;61600;48.126;11.542;2022-10-15T07:58:33;95276.88;;;17.02;76.26
73383;BME280;61600;48.126;11.542;2022-10-15T08:01:01;95275.25;;;17.01;76.08
73383;BME280;61600;48.126;11.542;2022-10-15T08:03:27;95280.00;;;16.71;76.81
73383;BME280;61600;48.126;11.542;2022-10-15T08:06:02;95290.91;;;16.79;76.32
73383;BME280;61600;48.126;11.542;2022-10-15T08:08:28;95286.09;;;16.97;76.26
73383;BME280;61600;48.126;11.542;2022-10-15T08:10:54;95286.63;;;16.90;76.46
73383;BME280;61600;48.126;11.542;2022-10-15T08:13:20;95297.38;;;17.25;75.23
73383;BME280;61600;48.126;11.542;2022-10-15T08:15:46;95295.69;;;17.12;75.25
73383;BME280;61600;48.126;11.542;2022-10-15T08:18:12;95294.88;;;16.90;75.56
73383;BME280;61600;48.126;11.542;2022-10-15T08:20:38;95293.34;;;17.02;75.04
73383;BME280;61600;48.126;11.542;2022-10-15T08:23:05;95303.22;;;17.23;74.84
73383;BME280;61600;48.126;11.542;2022-10-15T08:25:31;95306.81;;;17.15;74.50
73383;BME280;61600;48.126;11.542;2022-10-15T08:28:02;95311.47;;;17.23;74.29
73383;BME280;61600;48.126;11.542;2022-10-15T08:30:27;95299.25;;;16.91;73.99
73383;BME280;61600;48.126;11.542;2022-10-15T08:32:58;95330.41;;;16.95;74.57
73383;BME280;61600;48.126;11.542;2022-10-15T08:35:23;95340.25;;;16.96;74.75
73383;BME280;61600;48.126;11.542;2022-10-15T08:37:52;95352.16;;;17.09;74.32
73383;BME280;61600;48.126;11.542;2022-10-15T08:40:20;95342.47;;;17.03;74.95
73383;BME280;61600;48.126;11.542;2022-10-15T08:42:46;95331.00;;;16.72;75.84
73383;BME280;61600;48.126;11.542;2022-10-15T08:45:15;95325.72;;;16.67;76.70
73383;BME280;61600;48.126;11.542;2022-10-15T08:47:54;95395.72;;;16.52;78.24
73383;BME280;61600;48.126;11.542;2022-10-15T08:50:44;95360.56;;;16.75;76.93
73383;BME280;61600;48.126;11.542;2022-10-15T08:53:21;95363.84;;;16.68;76.07
73383;BME280;61600;48.126;11.542;2022-10-15T08:55:50;95379.41;;;16.56;76.65
73383;BME280;61600;48.126;11.542;2022-10-15T09:00:53;95369.88;;;16.91;76.03
73383;BME280;61600;48.126;11.542;2022-10-15T09:03:43;95364.78;;;17.02;76.93
73383;BME280;61600;48.126;11.542;2022-10-15T09:06:22;95368.25;;;16.90;76.13
73383;BME280;61600;48.126;11.542;2022-10-15T09:14:33;95368.31;;;17.31;75.08
73383;BME280;61600;48.126;11.542;2022-10-15T09:17:24;95375.03;;;17.63;74.72
73383;BME280;61600;48.126;11.542;2022-10-15T09:19:53;95362.75;;;17.81;73.93
73383;BME280;61600;48.126;11.542;2022-10-15T09:22:23;95365.97;;;17.83;73.95
73383;BME280;61600;48.126;11.542;2022-10-15T09:24:53;95368.94;;;18.11;72.78
73383;BME280;61600;48.126;11.542;2022-10-15T09:27:37;95361.00;;;17.98;72.94
73383;BME280;61600;48.126;11.542;2022-10-15T09:30:32;95359.44;;;18.21;72.79
73383;BME280;61600;48.126;11.542;2022-10-15T09:35:55;95356.41;;;18.46;71.88
73383;BME280;61600;48.126;11.542;2022-10-15T09:42:03;95364.88;;;18.29;71.55
73383;BME280;61600;48.126;11.542;2022-10-15T09:44:27;95369.28;;;18.55;71.49
73383;BME280;61600;48.126;11.542;2022-10-15T09:46:56;95365.63;;;18.51;71.35
73383;BME280;61600;48.126;11.542;2022-10-15T09:49:26;95365.94;;;18.49;71.26
73383;BME280;61600;48.126;11.542;2022-10-15T09:57:27;95364.47;;;19.00;69.67
73383;BME280;61600;48.126;11.542;2022-10-15T09:59:58;95371.59;;;19.01;68.97
73383;BME280;61600;48.126;11.542;2022-10-15T10:02:26;95369.75;;;18.93;71.36
73383;BME280;61600;48.126;11.542;2022-10-15T10:04:52;95366.66;;;19.31;69.14
73383;BME280;61600;48.126;11.542;2022-10-15T10:07:51;95377.91;;;19.26;67.42
73383;BME280;61600;48.126;11.542;2022-10-15T10:10:26;95368.44;;;19.39;67.75
73383;BME280;61600;48.126;11.542;2022-10-15T10:12:54;95379.94;;;19.53;66.92
73383;BME280;61600;48.126;11.542;2022-10-15T10:17:52;95372.63;;;19.45;66.33
73383;BME280;61600;48.126;11.542;2022-10-15T10:20:20;95365.81;;;19.55;65.57
73383;BME280;61600;48.126;11.542;2022-10-15T10:22:52;95369.50;;;19.47;65.86
73383;BME280;61600;48.126;11.542;2022-10-15T10:25:30;95378.47;;;19.43;64.82
73383;BME280;61600;48.126;11.542;2022-10-15T10:30:23;95378.25;;;19.88;64.12
73383;BME280;61600;48.126;11.542;2022-10-15T10:32:58;95365.75;;;19.79;63.09
73383;BME280;61600;48.126;11.542;2022-10-15T10:35:32;95373.13;;;19.75;63.19
73383;BME280;61600;48.126;11.542;2022-10-15T10:38:02;95375.66;;;20.35;62.44
73383;BME280;61600;48.126;11.542;2022-10-15T10:40:33;95381.69;;;20.13;62.50
73383;BME280;61600;48.126;11.542;2022-10-15T10:43:22;95380.38;;;20.35;61.78
73383;BME280;61600;48.126;11.542;2022-10-15T10:46:00;95375.22;;;20.49;60.55
73383;BME280;61600;48.126;11.542;2022-10-15T10:48:27;95377.19;;;20.80;60.57
73383;BME280;61600;48.126;11.542;2022-10-15T10:53:43;95362.84;;;20.15;60.72
73383;BME280;61600;48.126;11.542;2022-10-15T10:56:11;95362.97;;;20.34;60.69
73383;BME280;61600;48.126;11.542;2022-10-15T10:58:39;95375.06;;;20.58;60.15
73383;BME280;61600;48.126;11.542;2022-10-15T11:01:10;95372.16;;;20.38;58.96
73383;BME280;61600;48.126;11.542;2022-10-15T11:03:39;95365.41;;;20.24;58.97
73383;BME280;61600;48.126;11.542;2022-10-15T11:06:22;95368.63;;;20.54;58.34
73383;BME280;61600;48.126;11.542;2022-10-15T11:11:55;95375.50;;;20.44;58.27
73383;BME280;61600;48.126;11.542;2022-10-15T11:17:24;95381.31;;;20.86;57.30
73383;BME280;61600;48.126;11.542;2022-10-15T11:20:19;95374.69;;;20.59;57.89
73383;BME280;61600;48.126;11.542;2022-10-15T11:25:57;95380.78;;;20.65;57.99
73383;BME280;61600;48.126;11.542;2022-10-15T11:37:16;95377.00;;;20.73;56.94
73383;BME280;61600;48.126;11.542;2022-10-15T11:42:52;95365.78;;;20.81;55.74
73383;BME280;61600;48.126;11.542;2022-10-15T11:45:49;95371.84;;;21.18;56.33
73383;BME280;61600;48.126;11.542;2022-10-15T11:54:12;95369.38;;;21.48;54.30
73383;BME280;61600;48.126;11.542;2022-10-15T11:56:45;95373.19;;;21.59;53.09
73383;BME280;61600;48.126;11.542;2022-10-15T11:59:21;95372.13;;;21.64;53.65
73383;BME280;61600;48.126;11.542;2022-10-15T12:01:53;95358.63;;;21.62;53.26
73383;BME280;61600;48.126;11.542;2022-10-15T12:04:43;95353.00;;;21.59;53.51
73383;BME280;61600;48.126;11.542;2022-10-15T12:07:16;95368.56;;;21.48;53.94
73383;BME280;61600;48.126;11.542;2022-10-15T12:09:47;95360.91;;;21.41;53.41
73383;BME280;61600;48.126;11.542;2022-10-15T12:17:51;95363.84;;;21.48;52.71
73383;BME280;61600;48.126;11.542;2022-10-15T12:20:21;95371.22;;;21.25;53.32
73383;BME280;61600;48.126;11.542;2022-10-15T12:28:03;95369.81;;;21.50;53.02
73383;BME280;61600;48.126;11.542;2022-10-15T12:30:31;95367.91;;;21.35;53.14
73383;BME280;61600;48.126;11.542;2022-10-15T12:33:00;95368.78;;;21.39;53.03
73383;BME280;61600;48.126;11.542;2022-10-15T12:35:34;95371.25;;;21.44;52.90
73383;BME280;61600;48.126;11.542;2022-10-15T12:38:24;95369.88;;;21.34;53.31
73383;BME280;61600;48.126;11.542;2022-10-15T12:41:05;95371.38;;;21.01;53.61
73383;BME280;61600;48.126;11.542;2022-10-15T12:43:34;95373.00;;;21.02;54.72
73383;BME280;61600;48.126;11.542;2022-10-15T12:46:03;95354.69;;;21.63;53.33
73383;BME280;61600;48.126;11.542;2022-10-15T12:48:31;95353.69;;;21.36;53.89
73383;BME280;61600;48.126;11.542;2022-10-15T12:53:47;95354.16;;;21.38;54.14
73383;BME280;61600;48.126;11.542;2022-10-15T12:58:46;95341.09;;;21.74;53.19
73383;BME280;61600;48.126;11.542;2022-10-15T13:04:01;95352.16;;;22.31;51.83
73383;BME280;61600;48.126;11.542;2022-10-15T13:06:35;95343.91;;;22.35;51.24
73383;BME280;61600;48.126;11.542;2022-10-15T13:11:38;95345.03;;;23.21;49.97
73383;BME280;61600;48.126;11.542;2022-10-15T13:14:13;95338.50;;;23.36;49.41
73383;BME280;61600;48.126;11.542;2022-10-15T13:16:46;95339.59;;;23.28;49.76
73383;BME280;61600;48.126;11.542;2022-10-15T13:19:20;95350.00;;;23.35;49.56
73383;BME280;61600;48.126;11.542;2022-10-15T13:21:59;95347.63;;;23.37;50.28
73383;BME280;61600;48.126;11.542;2022-10-15T13:24:28;95349.59;;;23.10;50.09
73383;BME280;61600;48.126;11.542;2022-10-15T13:26:55;95351.31;;;22.69;50.91
73383;BME280;61600;48.126;11.542;2022-10-15T13:29:25;95343.00;;;22.08;52.77
73383;BME280;61600;48.126;11.542;2022-10-15T13:31:54;95354.13;;;21.92;53.49
73383;BME280;61600;48.126;11.542;2022-10-15T13:34:30;95350.56;;;22.11;52.65
73383;BME280;61600;48.126;11.542;2022-10-15T13:37:00;95352.34;;;22.42;52.30
73383;BME280;61600;48.126;11.542;2022-10-15T13:39:32;95356.75;;;22.24;52.53
73383;BME280;61600;48.126;11.542;2022-10-15T13:42:13;95366.09;;;22.16;52.79
73383;BME280;61600;48.126;11.542;2022-10-15T13:44:40;95355.22;;;22.26;52.50
73383;BME280;61600;48.126;11.542;2022-10-15T13:47:25;95347.38;;;22.51;51.89
73383;BME280;61600;48.126;11.542;2022-10-15T13:50:16;95352.47;;;22.49;52.20
73383;BME280;61600;48.126;11.542;2022-10-15T13:52:49;95348.59;;;22.54;51.65
73383;BME280;61600;48.126;11.542;2022-10-15T13:55:18;95342.38;;;23.06;50.59
73383;BME280;61600;48.126;11.542;2022-10-15T13:58:02;95335.78;;;23.66;49.56
73383;BME280;61600;48.126;11.542;2022-10-15T14:00:35;95327.53;;;24.36;47.69
73383;BME280;61600;48.126;11.542;2022-10-15T14:03:20;95326.28;;;24.30;47.96
73383;BME280;61600;48.126;11.542;2022-10-15T14:05:51;95324.72;;;24.70;46.67
73383;BME280;61600;48.126;11.542;2022-10-15T14:08:28;95324.88;;;24.47;47.18
73383;BME280;61600;48.126;11.542;2022-10-15T14:11:01;95317.34;;;23.81;47.23
73383;BME280;61600;48.126;11.542;2022-10-15T14:13:27;95319.63;;;23.46;47.90
73383;BME280;61600;48.126;11.542;2022-10-15T14:16:13;95326.66;;;23.13;47.82
73383;BME280;61600;48.126;11.542;2022-10-15T14:18:43;95327.69;;;22.79;48.74
73383;BME280;61600;48.126;11.542;2022-10-15T14:21:18;95331.69;;;22.59;49.78
73383;BME280;61600;48.126;11.542;2022-10-15T14:23:46;95334.06;;;22.37;50.61
73383;BME280;61600;48.126;11.542;2022-10-15T14:26:13;95329.06;;;22.47;50.34
73383;BME280;61600;48.126;11.542;2022-10-15T14:28:42;95331.78;;;22.43;50.31
73383;BME280;61600;48.126;11.542;2022-10-15T14:31:28;95334.63;;;22.47;50.55
73383;BME280;61600;48.126;11.542;2022-10-15T14:33:54;95330.72;;;22.28;50.80
73383;BME280;61600;48.126;11.542;2022-10-15T14:36:29;95327.22;;;22.54;50.42
73383;BME280;61600;48.126;11.542;2022-10-15T14:39:23;95326.56;;;22.61;49.79
73383;BME280;61600;48.126;11.542;2022-10-15T14:42:00;95323.81;;;22.41;50.23
73383;BME280;61600;48.126;11.542;2022-10-15T14:44:42;95327.94;;;22.28;50.24